• Join FlightAware (Why Join?)
  • Login
  • US Flag 
02:51PM EDT


 

Airport Tracker/Info


-or-


 

Live Flight TrackerFlight Track Log ✈ JBU1183 ✈ 02/May/2014 ✈ KJFK - KMCO

Flight Track Log - Related Links

Times and Time Zones

All times are in EDT time to prevent confusion due to time zone crossing. See the JBU1183 flight status page for this flight to view local times or setup timezone preferences in your user account.

Time Position Orientation Groundspeed Altitude Reporting Facility
EDT Latitude Longitude Course Direction KTS MPH feet Rate Location/Type
10:44PM 40.6333 -73.8667 146° Southeast 204 235 2,800  Level New York TRACON
10:45PM 40.5833 -73.8000 135° Southeast 249 287 5,400 2,100 Climbing New York TRACON
10:46PM 40.3853 -73.5353 143° Southeast  Level FlightAware Approximate
10:46PM 40.5667 -73.7167 105° East 279 321 7,000  Level New York TRACON
10:47PM 40.3104 -73.4604 143° Southeast  Level FlightAware Approximate
10:48PM 40.2312 -73.3814 146° Southeast  Level FlightAware Approximate
10:48PM 40.4617 -73.6150 144° Southeast 304 350 11,400  Level Washington Center
10:49PM 40.1463 -73.3059 146° Southeast  Level FlightAware Approximate
10:49PM 40.3897 -73.5461 144° Southeast 315 362 13,800  Level Washington Center
10:51PM 40.2236 -73.4561 158° South 320 368 17,400 1,920 Climbing Washington Center
10:52PM 40.1150 -73.4456 176° South 334 384 19,600 1,860 Climbing Washington Center
10:53PM 40.0169 -73.4350 175° South 356 410 21,200 1,680 Climbing Washington Center
10:54PM 39.9194 -73.4597 191° South 352 405 23,000 840 Climbing Washington Center
10:55PM 39.8458 -73.5350 218° Southwest 340 391 23,000 660 Level Washington Center
10:56PM 39.7742 -73.6153 221° Southwest 333 383 24,400 1,560 Climbing Washington Center
10:57PM 39.7025 -73.6956 221° Southwest 344 396 26,200 1,620 Climbing Washington Center
10:58PM 39.6308 -73.7728 220° Southwest 344 396 27,700 1,380 Climbing Washington Center
10:59PM 39.5611 -73.8528 222° Southwest 344 396 29,100 1,560 Climbing Washington Center
11:00PM 39.4914 -73.9297 220° Southwest 344 396 30,900 1,440 Climbing Washington Center
11:01PM 39.4236 -74.0011 219° Southwest 339 390 32,000 540 Climbing Washington Center
11:02PM 39.3475 -74.0672 214° Southwest 334 384 32,000  Level Washington Center
11:03PM 39.2711 -74.1278 212° Southwest 334 384 32,000  Level Washington Center
11:04PM 39.1947 -74.1936 214° Southwest 327 376 32,000 120 Level Washington Center
11:05PM 39.1183 -74.2567 213° Southwest 327 376 32,300 720 Climbing Washington Center
11:06PM 39.0419 -74.3194 213° Southwest 332 382 33,500 900 Climbing Washington Center
11:07PM 38.9633 -74.3797 211° Southwest 332 382 34,200 840 Climbing Washington Center
11:08PM 38.8911 -74.4422 214° Southwest 327 376 35,200 900 Climbing Washington Center
11:09PM 38.8103 -74.4914 205° Southwest 322 371 36,000 360 Climbing Washington Center
11:10PM 38.7314 -74.5378 205° Southwest 317 365 36,000  Level Washington Center
11:11PM 38.6506 -74.5869 205° Southwest 317 365 36,000  Level Washington Center
11:12PM 38.5694 -74.6358 205° Southwest 322 371 36,000  Level Washington Center
11:13PM 38.4908 -74.6844 206° Southwest 322 371 36,000  Level Washington Center
11:14PM 38.4119 -74.7306 205° Southwest 322 371 36,000  Level Washington Center
11:15PM 38.3331 -74.7792 206° Southwest 322 371 36,000  Level Washington Center
11:16PM 38.2539 -74.8250 204° Southwest 322 371 36,000  Level Washington Center
11:17PM 38.1750 -74.8733 206° Southwest 322 371 36,000  Level Washington Center
11:18PM 38.0919 -74.9242 206° Southwest 322 371 36,000  Level Washington Center
11:19PM 38.0089 -74.9750 206° Southwest 328 377 36,000  Level Washington Center
11:20PM 37.9236 -75.0206 203° Southwest 333 383 36,000  Level Washington Center
11:21PM 37.8403 -75.0711 206° Southwest 338 389 36,000  Level Washington Center
11:22PM 37.7531 -75.1217 205° Southwest 338 389 36,000  Level Washington Center
11:23PM 37.6678 -75.1694 204° Southwest 338 389 36,000  Level Washington Center
11:24PM 37.5803 -75.2197 204° Southwest 338 389 36,000  Level Washington Center
11:25PM 37.4928 -75.2700 205° Southwest 343 395 36,000  Level Washington Center
11:26PM 37.4053 -75.3225 205° Southwest 343 395 36,000  Level Washington Center
11:27PM 37.3200 -75.3700 204° Southwest 343 395 36,000  Level Washington Center
11:28PM 37.2322 -75.4222 205° Southwest 337 388 36,000  Level Washington Center
11:29PM 37.1428 -75.4747 205° Southwest 343 395 36,000  Level Washington Center
11:30PM 37.0572 -75.5217 204° Southwest 343 395 36,000  Level Washington Center
11:31PM 36.9697 -75.5711 204° Southwest 338 389 36,000  Level Washington Center
11:32PM 36.8800 -75.6206 204° Southwest 343 395 36,000  Level Washington Center
11:33PM 36.7922 -75.6722 205° Southwest 343 395 36,000  Level Washington Center
11:34PM 36.7025 -75.7214 204° Southwest 348 400 36,000  Level Washington Center
11:35PM 36.6128 -75.7731 205° Southwest 353 406 36,000  Level Washington Center
11:36PM 36.5231 -75.8219 204° Southwest 358 412 36,000  Level Washington Center
11:37PM 36.4331 -75.8733 205° Southwest 358 412 36,000  Level Washington Center
11:38PM 36.3433 -75.9247 205° Southwest 358 412 36,000  Level Washington Center
11:39PM 36.2533 -75.9731 203° Southwest 358 412 36,000  Level Washington Center
11:40PM 36.1742 -76.0192 205° Southwest 358 412 36,000  Level Washington Center
11:41PM 36.0819 -76.0700 204° Southwest 358 412 36,000  Level Washington Center
11:42PM 35.9942 -76.1208 205° Southwest 358 412 36,000  Level Washington Center
11:43PM 35.9022 -76.1689 203° Southwest 358 412 36,000  Level Washington Center
11:44PM 35.8100 -76.2169 203° Southwest 358 412 36,000  Level Washington Center
11:45PM 35.7200 -76.2675 205° Southwest 363 418 36,000  Level Washington Center
11:46PM 35.6281 -76.3203 205° Southwest 363 418 36,000  Level Washington Center
11:47PM 35.5381 -76.3706 204° Southwest 363 418 36,000  Level Washington Center
11:48PM 35.4439 -76.4206 203° Southwest 363 418 36,000  Level Washington Center
11:49PM 35.3536 -76.4681 203° Southwest 363 418 36,000  Level Washington Center
11:50PM 35.2614 -76.5206 205° Southwest 363 418 36,000  Level Washington Center
11:51PM 35.1692 -76.5703 204° Southwest 363 418 36,000  Level Washington Center
11:52PM 35.0686 -76.6275 205° Southwest 363 418 36,000  Level Washington Center
11:53PM 34.9806 -76.6769 205° Southwest 358 412 36,000 120 Level Washington Center
11:54PM 34.8906 -76.7239 203° Southwest 358 412 36,300 480 Climbing Washington Center
11:55PM 34.8003 -76.7708 203° Southwest 358 412 37,000 600 Climbing Washington Center
11:56PM 34.7122 -76.8175 204° Southwest 358 412 37,600 480 Climbing Washington Center
11:57PM 34.6242 -76.8642 204° Southwest 358 412 38,000 180 Climbing Washington Center
11:58PM 34.5358 -76.9106 203° Southwest 358 412 38,000  Level Washington Center
11:59PM 34.4456 -76.9594 204° Southwest 358 412 38,000  Level Washington Center
12:00AM 34.3553 -77.0083 204° Southwest 358 412 38,000  Level Washington Center
12:02AM 34.1831 -77.0969 203° Southwest 375 432 38,000  Level Jacksonville Center
12:03AM 34.0936 -77.1456 204° Southwest 369 425 38,000  Level Jacksonville Center
12:04AM 34.0017 -77.1917 203° Southwest 364 419 38,000  Level Jacksonville Center
12:05AM 33.9100 -77.2400 204° Southwest 364 419 38,000  Level Jacksonville Center
12:06AM 33.8161 -77.2886 203° Southwest 370 426 38,000  Level Jacksonville Center
12:07AM 33.7225 -77.3369 203° Southwest 370 426 38,000  Level Jacksonville Center
12:08AM 33.6308 -77.3878 205° Southwest 370 426 38,000  Level Jacksonville Center
12:09AM 33.5367 -77.4333 202° Southwest 370 426 38,000  Level Jacksonville Center
12:10AM 33.4431 -77.4839 204° Southwest 370 426 38,000  Level Jacksonville Center
12:11AM 33.3531 -77.5292 203° Southwest 370 426 38,000  Level Jacksonville Center
12:12AM 33.2569 -77.5772 203° Southwest 370 426 38,000  Level Jacksonville Center
12:13AM 33.1611 -77.6275 204° Southwest 370 426 38,000  Level Jacksonville Center
12:14AM 33.0669 -77.6753 203° Southwest 370 426 38,000  Level Jacksonville Center
12:15AM 32.9711 -77.7256 204° Southwest 370 426 38,000  Level Jacksonville Center
12:16AM 32.8747 -77.7706 201° Southwest 370 426 38,000  Level Jacksonville Center
12:17AM 32.7786 -77.8156 201° Southwest 370 426 38,000  Level Jacksonville Center
12:18AM 32.6825 -77.8653 204° Southwest 370 426 38,000  Level Jacksonville Center
12:19AM 32.5861 -77.9078 200° South 370 426 38,000  Level Jacksonville Center
12:20AM 32.4878 -77.9597 204° Southwest 370 426 38,000  Level Jacksonville Center
12:21AM 32.3917 -78.0069 203° Southwest 370 426 38,000  Level Jacksonville Center
12:22AM 32.2933 -78.0539 202° Southwest 375 432 38,000  Level Jacksonville Center
12:23AM 32.1950 -78.1058 204° Southwest 380 437 38,000  Level Jacksonville Center
12:24AM 32.0967 -78.1500 201° Southwest 385 443 38,000  Level Jacksonville Center
12:25AM 31.9961 -78.1969 202° Southwest 385 443 38,000  Level Jacksonville Center
12:26AM 31.8978 -78.2483 204° Southwest 390 449 38,000  Level Jacksonville Center
12:27AM 31.7972 -78.3000 204° Southwest 397 457 38,000  Level Jacksonville Center
12:28AM 31.6950 -78.3539 204° Southwest 397 457 38,000  Level Jacksonville Center
12:29AM 31.5942 -78.4000 201° Southwest 397 457 38,000  Level Jacksonville Center
12:30AM 31.4956 -78.4439 201° Southwest 391 450 38,000  Level Jacksonville Center
12:31AM 31.3911 -78.4975 204° Southwest 396 456 38,000  Level Jacksonville Center
12:33AM 31.1761 -78.6094 204° Southwest 381 438 38,000  Level Miami Center
12:34AM 31.0692 -78.6536 199° South 387 445 38,000  Level Miami Center
12:35AM 30.9708 -78.7003 202° Southwest 392 451 38,000  Level Miami Center
12:36AM 30.8700 -78.7469 202° Southwest 399 459 38,000  Level Miami Center
12:37AM 30.7675 -78.7933 201° Southwest 392 451 38,000  Level Miami Center
12:38AM 30.6625 -78.8419 202° Southwest 402 463 38,000  Level Miami Center
12:39AM 30.5661 -78.8908 204° Southwest 397 457 38,000  Level Miami Center
12:40AM 30.4714 -78.9492 208° Southwest 393 452 38,000  Level Miami Center
12:41AM 30.3828 -79.0169 213° Southwest 385 443 38,000  Level Miami Center
12:42AM 30.3006 -79.0825 215° Southwest 380 437 38,000  Level Miami Center
12:43AM 30.2119 -79.1481 213° Southwest 380 437 38,000 -1,140 Level Miami Center
12:54AM 29.2408 -79.8908 211° Southwest 399 459 24,800 -1,320 Descending Miami Center
12:55AM 29.2569 -79.8744 213° Southwest  Level FlightAware Approximate
12:55AM 29.1519 -79.9575 213° Southwest 394 453 23,000  Level Miami Center
12:56AM 29.1749 -79.9357 213° Southwest  Level FlightAware Approximate
12:56AM 29.0669 -80.0239 214° Southwest 388 447 21,300  Level Miami Center
12:57AM 29.0921 -79.9953 211° Southwest  Level FlightAware Approximate
12:57AM 28.9822 -80.0831 211° Southwest 373 429 19,600  Level Miami Center
12:58AM 29.0083 -80.0533 211° Southwest  Level FlightAware Approximate
12:58AM 28.9117 -80.1569 223° Southwest 368 423 18,000  Level Miami Center
12:59AM 28.9246 -80.1112 211° Southwest  Level FlightAware Approximate
12:59AM 28.8667 -80.3333 254° West 335 386 15,300  Level Orlando TRACON
01:00AM 28.8333 -80.4167 245° Southwest 323 372 14,000 -660 Descending Orlando TRACON
01:01AM 28.8167 -80.5167 259° West 323 372 14,000  Level Orlando TRACON
01:02AM 28.8000 -80.6167 259° West 323 372 14,000 -480 Level Orlando TRACON
01:03AM 28.7833 -80.7333 261° West 315 362 13,000 -1,440 Descending Orlando TRACON
01:04AM 28.7667 -80.8167 257° West 298 343 11,100 -1,620 Descending Orlando TRACON
01:05AM 28.7667 -80.9000 270° West 265 305 9,800 -1,500 Descending Orlando TRACON
01:06AM 28.7500 -80.9833 257° West 255 293 8,100 -1,740 Descending Orlando TRACON
01:07AM 28.7167 -81.0500 240° Southwest 257 296 6,400 -1,860 Descending Orlando TRACON
01:08AM 28.6833 -81.1167 240° Southwest 252 290 4,400 -1,800 Descending Orlando TRACON
01:09AM 28.6333 -81.1833 229° Southwest 252 290 2,900 -960 Descending Orlando TRACON
01:10AM 28.6000 -81.2500 240° Southwest 251 289 2,500 -300 Descending Orlando TRACON
01:11AM 28.5500 -81.3000 221° Southwest 172 198 2,400 -540 Descending Orlando TRACON
01:12AM 28.5167 -81.3167 204° Southwest 161 185 1,500 -900 Descending Orlando TRACON
01:13AM 28.4833 -81.3167 180° South 129 148 700 -840 Descending Orlando TRACON